Airfield :
LOGIN :

Register | Disclaimer

   EN    FR    IT 

 










Legend :    VFR   Marginal VFR   IFR   Intensive IFR   Very Intensive IFR
Visi :
Ceiling :
>= 8 km
>= 3000ft
5 to 8 km
1000 to 3000 ft
1500m to 5 km
500 to 1000 ft
800 to 1500m
200 to 500 ft
< 800m
< 200 ft
Symbols :   Thunderstorms  Fog  Heavy snow  Heavy precipitations  Wind > 20 kt
SIGMETs :     Misc.  Thunderstorms  Icing  Turbulence  Mountain Waves  Volcanic Ashes







- Airport Elevation : 218 ft
- IATA code : LBG
- Download approach charts


LFPB - Paris / Le Bourget

CURRENT METAR :
  • 181700Z AUTO 02008KT 350V050 CAVOK 16/10 Q1021 NOSIG

EXPIRED METARs :
  • 181630Z AUTO 02009KT CAVOK 17/10 Q1021 NOSIG
  • 181600Z AUTO 02013KT 340V050 CAVOK 17/10 Q1021 TEMPO 02015G25KT
  • 181530Z AUTO 03012KT CAVOK 18/11 Q1021 TEMPO 02015G25KT
  • 181500Z AUTO 01011KT 340V050 CAVOK 18/11 Q1021 TEMPO 02015G25KT
  • 181430Z AUTO 02013KT 9999 FEW025 18/11 Q1021 TEMPO 02015G25KT

TAF TAF LFPB
Valid from the 18 at 18:00 until the 19 at 18:00 UTC


181700Z 1818/1918 03012KT CAVOK
PROB40
TEMPO 1900/1909 BKN010
PROB40
TEMPO 1904/1908 3000 BR BKN007
PROB30
TEMPO 1906/1907 0800 BCFG BKN005
ATIS : +33 1 48 62 43 92
No reported NOTAMs for that airfield.



MET'MAP, your aeronautical weather chart ! - Copyright ORBIFLY December 2007 - Disclaimer

ORBIFLY MET'MAP TEAM :

Programming & Development : Alexandra Zaïnal
Concept & Development : Baudouin d'Aumeries
Co-Development & Prog : Marc-Olivier Méhu
Technical & hardware support : Manuel Goepfert

Contact : metmap@orbifly.com




SOURCES & CREDITS :

   NOAA